COA weather

Columbia Airport
Columbia, California, United States

Public forecast

Using degrees Fahrenheit for public forecast. Weather courtesy of forecast.io.

METAR (pilot weather report)

Retrieved UTC (0 seconds ago):

TAF (pilot weather forecast)

Closest forecast is Modesto City Co-Harry Sham Field, 35.3 nm (65.3 km) SW. Retrieved 2019/08/24 18:36 UTC (30 minutes ago):

TAF KMOD 241731Z 2418/2518 33009KT P6SM SKC FM250800 35005KT P6SM SKC